createdAt,value
2018-10-02T00:00:24.918Z,7.45
2018-10-02T00:02:51.766Z,7.46
2018-10-02T00:05:18.598Z,7.47
2018-10-02T00:07:45.949Z,7.48
2018-10-02T00:10:12.804Z,7.51
2018-10-02T00:12:45.254Z,7.51
2018-10-02T00:15:12.334Z,7.51
2018-10-02T00:17:39.226Z,7.53
2018-10-02T00:20:06.107Z,7.53
2018-10-02T00:22:33.218Z,7.54
2018-10-02T00:25:00.058Z,7.54
2018-10-02T00:27:26.947Z,7.53
2018-10-02T00:29:54.318Z,7.54
2018-10-02T00:32:21.519Z,7.55
2018-10-02T00:34:48.384Z,7.54
2018-10-02T00:37:15.495Z,7.54
2018-10-02T00:39:42.817Z,7.52
2018-10-02T00:42:09.681Z,7.53
2018-10-02T00:44:36.866Z,7.50
2018-10-02T00:47:03.761Z,7.49
2018-10-02T00:49:30.621Z,7.48
2018-10-02T00:51:57.679Z,7.47
2018-10-02T00:54:24.560Z,7.45
2018-10-02T00:56:51.494Z,7.43
2018-10-02T00:59:18.714Z,7.40
2018-10-02T01:01:45.554Z,7.37
2018-10-02T01:04:12.388Z,7.33
2018-10-02T01:06:39.411Z,7.30
2018-10-02T01:09:07.321Z,7.29
2018-10-02T01:11:34.192Z,7.27
2018-10-02T01:14:01.299Z,7.26
2018-10-02T01:16:28.210Z,7.24
2018-10-02T01:18:55.668Z,7.21
2018-10-02T01:21:22.714Z,7.18
2018-10-02T01:23:49.532Z,7.17
2018-10-02T01:26:16.392Z,7.16
2018-10-02T01:28:43.423Z,7.14
2018-10-02T01:31:10.266Z,7.13
2018-10-02T01:33:37.154Z,7.08
2018-10-02T01:36:05.698Z,7.07
2018-10-02T01:38:32.513Z,7.04
2018-10-02T01:40:59.537Z,7.02
2018-10-02T01:43:26.771Z,6.98
2018-10-02T01:45:53.632Z,6.94
2018-10-02T01:48:20.529Z,6.91
2018-10-02T01:50:47.716Z,6.87
2018-10-02T01:53:14.560Z,6.85
2018-10-02T01:55:41.421Z,6.82
2018-10-02T01:58:08.537Z,6.78
2018-10-02T02:00:35.416Z,6.77
2018-10-02T02:03:02.249Z,6.75
2018-10-02T02:05:29.517Z,6.70
2018-10-02T02:07:56.349Z,6.68
2018-10-02T02:10:23.246Z,6.65
2018-10-02T02:12:50.357Z,6.62
2018-10-02T02:15:17.246Z,6.60
2018-10-02T02:17:44.113Z,6.56
2018-10-02T02:20:11.247Z,6.54
2018-10-02T02:22:38.128Z,6.52
2018-10-02T02:25:04.994Z,6.49
2018-10-02T02:27:32.126Z,6.47
2018-10-02T02:29:59.028Z,6.43
2018-10-02T02:32:25.980Z,6.41
2018-10-02T02:34:52.902Z,6.37
2018-10-02T02:37:19.795Z,6.33
2018-10-02T02:39:46.675Z,6.30
2018-10-02T02:42:14.103Z,6.25
2018-10-02T02:44:40.945Z,6.23
2018-10-02T02:47:13.473Z,6.19
2018-10-02T02:49:45.816Z,6.15
2018-10-02T02:52:13.302Z,6.11
2018-10-02T02:54:40.129Z,6.09
2018-10-02T02:57:06.981Z,6.06
2018-10-02T02:59:34.252Z,6.03
2018-10-02T03:02:02.017Z,5.99
2018-10-02T03:04:28.951Z,5.97
2018-10-02T03:06:56.085Z,5.94
2018-10-02T03:09:22.949Z,5.94
2018-10-02T03:11:49.877Z,5.91
2018-10-02T03:14:16.796Z,5.88
2018-10-02T03:16:43.684Z,5.84
2018-10-02T03:19:10.558Z,5.81
2018-10-02T03:21:37.703Z,5.79
2018-10-02T03:24:04.596Z,5.76
2018-10-02T03:26:31.462Z,5.74
2018-10-02T03:28:58.391Z,5.70
2018-10-02T03:31:25.269Z,5.66
2018-10-02T03:33:52.140Z,5.64
2018-10-02T03:36:19.238Z,5.61
2018-10-02T03:38:46.117Z,5.59
2018-10-02T03:41:13.000Z,5.57
2018-10-02T03:43:40.384Z,5.55
2018-10-02T03:46:07.235Z,5.51
2018-10-02T03:48:34.088Z,5.48
2018-10-02T03:51:01.001Z,5.45
2018-10-02T03:53:27.850Z,5.42
2018-10-02T03:55:54.770Z,5.39
2018-10-02T03:58:21.898Z,5.36
2018-10-02T04:00:48.967Z,5.33
2018-10-02T04:03:15.859Z,5.30
2018-10-02T04:05:43.299Z,5.27
2018-10-02T04:08:10.225Z,5.24
2018-10-02T04:10:37.069Z,5.21
2018-10-02T04:13:04.195Z,5.18
2018-10-02T04:15:31.185Z,5.16
2018-10-02T04:17:58.049Z,5.12
2018-10-02T04:20:25.314Z,5.07
2018-10-02T04:22:52.150Z,5.04
2018-10-02T04:25:19.110Z,5.01
2018-10-02T04:27:46.305Z,4.98
2018-10-02T04:30:13.196Z,4.95
2018-10-02T04:32:40.025Z,4.92
2018-10-02T04:35:06.995Z,4.90
2018-10-02T04:37:33.916Z,4.86
2018-10-02T04:40:00.942Z,4.85
2018-10-02T04:42:27.877Z,4.80
2018-10-02T04:44:54.946Z,4.76
2018-10-02T04:47:21.791Z,4.71
2018-10-02T04:49:48.849Z,4.70
2018-10-02T04:52:15.661Z,4.66
2018-10-02T04:54:42.518Z,4.64
2018-10-02T04:57:09.548Z,4.61
2018-10-02T04:59:36.492Z,4.57
2018-10-02T05:02:03.362Z,4.53
2018-10-02T05:04:30.407Z,4.49
2018-10-02T05:06:57.327Z,4.47
2018-10-02T05:09:24.154Z,4.43
2018-10-02T05:11:51.293Z,4.39
2018-10-02T05:14:18.243Z,4.36
2018-10-02T05:16:45.080Z,4.33
2018-10-02T05:19:12.386Z,4.30
2018-10-02T05:21:39.215Z,4.28
2018-10-02T05:24:06.109Z,4.26
2018-10-02T05:26:33.197Z,4.23
2018-10-02T05:29:00.113Z,4.22
2018-10-02T05:31:27.023Z,4.20
2018-10-02T05:33:54.083Z,4.19
2018-10-02T05:36:21.050Z,4.17
2018-10-02T05:38:47.872Z,4.15
2018-10-02T05:41:14.913Z,4.15
2018-10-02T05:43:41.835Z,4.14
2018-10-02T05:46:09.155Z,4.12
2018-10-02T05:48:36.370Z,4.11
2018-10-02T05:51:03.320Z,4.11
2018-10-02T05:53:30.191Z,4.10
2018-10-02T05:55:57.128Z,4.10
2018-10-02T05:58:24.078Z,4.10
2018-10-02T06:00:51.038Z,4.11
2018-10-02T06:03:18.045Z,4.11
2018-10-02T06:05:44.950Z,4.11
2018-10-02T06:08:11.811Z,4.11
2018-10-02T06:10:38.879Z,4.13
2018-10-02T06:13:05.786Z,4.14
2018-10-02T06:15:32.657Z,4.15
2018-10-02T06:17:59.743Z,4.15
2018-10-02T06:20:26.583Z,4.17
2018-10-02T06:22:53.707Z,4.17
2018-10-02T06:25:20.857Z,4.18
2018-10-02T06:27:47.683Z,4.17
2018-10-02T06:30:14.558Z,4.19
2018-10-02T06:32:41.757Z,4.21
2018-10-02T06:35:08.642Z,4.22
2018-10-02T06:37:35.525Z,4.21
2018-10-02T06:40:02.843Z,4.22
2018-10-02T06:42:29.704Z,4.24
2018-10-02T06:44:56.530Z,4.26
2018-10-02T06:47:23.897Z,4.29
2018-10-02T06:49:50.744Z,4.33
2018-10-02T06:52:17.987Z,4.38
2018-10-02T06:54:44.827Z,4.40
2018-10-02T06:57:11.725Z,4.44
2018-10-02T06:59:38.601Z,4.48
2018-10-02T07:02:05.637Z,4.52
2018-10-02T07:04:32.500Z,4.54
2018-10-02T07:06:59.377Z,4.57
2018-10-02T07:09:26.440Z,4.62
2018-10-02T07:11:53.256Z,4.65
2018-10-02T07:14:20.171Z,4.67
2018-10-02T07:16:47.306Z,4.68
2018-10-02T07:19:14.863Z,4.73
2018-10-02T07:21:42.427Z,4.78
2018-10-02T07:24:10.271Z,4.81
2018-10-02T07:26:37.294Z,4.85
2018-10-02T07:29:04.146Z,4.89
2018-10-02T07:31:31.779Z,4.92
2018-10-02T07:33:59.332Z,4.96
2018-10-02T07:36:26.802Z,5.00
2018-10-02T07:38:54.551Z,5.04
2018-10-02T07:41:21.377Z,5.06
2018-10-02T07:43:48.228Z,5.08
2018-10-02T07:46:15.251Z,5.10
2018-10-02T07:48:42.367Z,5.14
2018-10-02T07:51:09.297Z,5.20
2018-10-02T07:53:36.430Z,5.25
2018-10-02T07:56:03.352Z,5.30
2018-10-02T07:58:30.222Z,5.34
2018-10-02T08:00:57.338Z,5.42
2018-10-02T08:03:24.204Z,5.47
2018-10-02T08:05:51.380Z,5.51
2018-10-02T08:08:18.491Z,5.57
2018-10-02T08:10:45.408Z,5.62
2018-10-02T08:13:12.242Z,5.68
2018-10-02T08:15:40.665Z,5.75
2018-10-02T08:18:08.172Z,5.80
2018-10-02T08:20:35.836Z,5.85
2018-10-02T08:23:03.459Z,5.90
2018-10-02T08:25:30.968Z,5.94
2018-10-02T08:27:58.499Z,5.98
2018-10-02T08:30:26.223Z,6.04
2018-10-02T08:32:53.720Z,6.08
2018-10-02T08:35:21.332Z,6.11
2018-10-02T08:37:48.894Z,6.16
2018-10-02T08:40:16.417Z,6.21
2018-10-02T08:42:43.254Z,6.27
2018-10-02T08:45:10.600Z,6.31
2018-10-02T08:47:38.180Z,6.38
2018-10-02T08:50:05.829Z,6.45
2018-10-02T08:52:33.475Z,6.50
2018-10-02T08:55:00.950Z,6.56
2018-10-02T08:57:28.472Z,6.63
2018-10-02T08:59:56.299Z,6.70
2018-10-02T09:02:23.755Z,6.79
2018-10-02T09:04:51.267Z,6.87
2018-10-02T09:07:18.829Z,6.94
2018-10-02T09:09:46.384Z,7.00
2018-10-02T09:12:13.957Z,7.12
2018-10-02T09:14:41.608Z,7.23
2018-10-02T09:17:09.132Z,7.33
2018-10-02T09:19:36.660Z,7.40
2018-10-02T09:22:04.432Z,7.48
2018-10-02T09:24:32.003Z,7.57
2018-10-02T09:27:00.472Z,7.66
2018-10-02T09:29:28.269Z,7.78
2018-10-02T09:32:01.301Z,7.88
2018-10-02T09:34:34.391Z,7.95
2018-10-02T09:37:07.548Z,8.07
2018-10-02T09:39:40.468Z,8.19
2018-10-02T09:42:12.936Z,8.36
2018-10-02T09:44:40.653Z,8.59
2018-10-02T09:47:07.537Z,8.83
2018-10-02T09:49:34.450Z,9.08
2018-10-02T09:52:01.635Z,9.30
2018-10-02T09:54:28.543Z,9.51
2018-10-02T09:56:55.487Z,9.66
2018-10-02T09:59:22.557Z,9.78
2018-10-02T10:01:54.959Z,9.90
2018-10-02T10:04:22.693Z,10.01
2018-10-02T10:06:50.313Z,10.11
2018-10-02T10:09:17.841Z,10.22
2018-10-02T10:11:45.366Z,10.33
2018-10-02T10:14:12.979Z,10.45
2018-10-02T10:16:40.515Z,10.56
2018-10-02T10:19:08.039Z,10.67
2018-10-02T10:21:35.892Z,10.77
2018-10-02T10:24:03.491Z,10.86
2018-10-02T10:26:31.024Z,10.81
2018-10-02T10:28:58.811Z,10.89
2018-10-02T10:31:26.241Z,10.91
2018-10-02T10:33:53.822Z,10.99
2018-10-02T10:36:21.542Z,11.09
2018-10-02T10:38:49.087Z,11.25
2018-10-02T10:41:16.572Z,11.37
2018-10-02T10:43:44.224Z,11.45
2018-10-02T10:46:11.861Z,11.51
2018-10-02T10:48:39.339Z,11.56
2018-10-02T10:51:07.215Z,11.62
2018-10-02T10:53:35.193Z,11.70
2018-10-02T10:56:02.087Z,11.81
2018-10-02T10:58:29.237Z,11.90
2018-10-02T11:00:56.288Z,11.82
2018-10-02T11:03:23.236Z,12.10
2018-10-02T11:05:50.998Z,12.19
2018-10-02T11:08:17.941Z,12.32
2018-10-02T11:10:44.808Z,12.45
2018-10-02T11:13:11.907Z,12.57
2018-10-02T11:15:38.837Z,12.68
2018-10-02T11:18:05.672Z,12.81
2018-10-02T11:20:33.883Z,12.91
2018-10-02T11:23:00.953Z,12.92
2018-10-02T11:25:27.907Z,12.92
2018-10-02T11:27:55.008Z,13.04
2018-10-02T11:30:21.856Z,13.21
2018-10-02T11:32:48.715Z,13.34
2018-10-02T11:35:16.507Z,13.45
2018-10-02T11:37:44.211Z,13.52
2018-10-02T11:40:11.645Z,13.58
2018-10-02T11:42:39.363Z,13.67
2018-10-02T11:45:06.982Z,13.72
2018-10-02T11:47:34.425Z,13.74
2018-10-02T11:50:02.170Z,13.77
2018-10-02T11:52:29.665Z,13.81
2018-10-02T11:54:57.196Z,13.80
2018-10-02T11:57:24.910Z,13.80
2018-10-02T11:59:52.352Z,13.85
2018-10-02T12:02:19.930Z,13.94
2018-10-02T12:04:47.682Z,14.01
2018-10-02T12:07:15.197Z,14.04
2018-10-02T12:09:42.645Z,14.11
2018-10-02T12:12:10.628Z,14.17
2018-10-02T12:14:38.188Z,14.19
2018-10-02T12:17:05.647Z,14.19
2018-10-02T12:19:33.331Z,14.24
2018-10-02T12:22:00.886Z,14.26
2018-10-02T12:24:28.380Z,14.30
2018-10-02T12:26:56.218Z,14.32
2018-10-02T12:29:23.741Z,14.35
2018-10-02T12:31:51.281Z,14.41
2018-10-02T12:34:19.057Z,14.45
2018-10-02T12:36:46.644Z,14.47
2018-10-02T12:39:14.184Z,14.51
2018-10-02T12:41:41.815Z,14.51
2018-10-02T12:44:09.273Z,14.50
2018-10-02T12:46:36.759Z,14.54
2018-10-02T12:49:04.478Z,14.57
2018-10-02T12:51:31.963Z,14.58
2018-10-02T12:53:59.446Z,14.59
2018-10-02T12:56:27.300Z,14.60
2018-10-02T12:58:54.726Z,14.62
2018-10-02T13:01:22.248Z,14.61
2018-10-02T13:03:49.957Z,14.58
2018-10-02T13:06:17.408Z,14.59
2018-10-02T13:08:44.877Z,14.59
2018-10-02T13:11:12.507Z,14.59
2018-10-02T13:13:39.977Z,14.60
2018-10-02T13:16:07.562Z,14.58
2018-10-02T13:18:35.225Z,14.54
2018-10-02T13:21:02.665Z,14.54
2018-10-02T13:23:30.173Z,14.50
2018-10-02T13:25:57.965Z,14.49
2018-10-02T13:28:25.516Z,14.48
2018-10-02T13:30:53.075Z,14.48
2018-10-02T13:33:20.801Z,14.47
2018-10-02T13:35:48.375Z,14.42
2018-10-02T13:38:15.928Z,14.39
2018-10-02T13:40:43.982Z,14.33
2018-10-02T13:43:11.557Z,14.27
2018-10-02T13:45:39.136Z,14.23
2018-10-02T13:48:07.056Z,14.16
2018-10-02T13:50:34.584Z,14.10
2018-10-02T13:53:02.180Z,14.03
2018-10-02T13:55:29.744Z,13.97
2018-10-02T13:57:57.456Z,13.91
2018-10-02T14:00:24.968Z,13.83
2018-10-02T14:02:52.647Z,13.78
2018-10-02T14:05:20.167Z,13.68
2018-10-02T14:07:47.636Z,13.59
2018-10-02T14:10:15.181Z,13.47
2018-10-02T14:12:42.717Z,13.28
2018-10-02T14:15:10.274Z,13.15
2018-10-02T14:17:37.953Z,13.06
2018-10-02T14:20:05.613Z,12.99
2018-10-02T14:22:33.184Z,12.91
2018-10-02T14:25:00.208Z,12.80
2018-10-02T14:27:27.103Z,12.69
2018-10-02T14:29:53.965Z,12.61
2018-10-02T14:32:21.692Z,12.56
2018-10-02T14:34:48.526Z,12.52
2018-10-02T14:37:15.421Z,12.45
2018-10-02T14:39:42.625Z,12.38
2018-10-02T14:42:09.555Z,12.32
2018-10-02T14:44:36.405Z,12.24
2018-10-02T14:47:03.975Z,12.17
2018-10-02T14:49:31.539Z,12.11
2018-10-02T14:51:59.047Z,12.08
2018-10-02T14:54:26.113Z,12.03
2018-10-02T14:56:53.024Z,11.99
2018-10-02T14:59:20.132Z,11.94
2018-10-02T15:01:47.141Z,11.89
2018-10-02T15:04:14.070Z,11.83
2018-10-02T15:06:40.894Z,11.76
2018-10-02T15:09:08.268Z,11.71
2018-10-02T15:11:35.133Z,11.65
2018-10-02T15:14:01.997Z,11.58
2018-10-02T15:16:29.062Z,11.53
2018-10-02T15:18:56.016Z,11.47
2018-10-02T15:21:22.831Z,11.39
2018-10-02T15:23:50.190Z,11.33
2018-10-02T15:26:17.035Z,11.25
2018-10-02T15:28:43.966Z,11.17
2018-10-02T15:31:11.056Z,11.10
2018-10-02T15:33:37.887Z,11.01
2018-10-02T15:36:04.763Z,10.92
2018-10-02T15:38:31.883Z,10.83
2018-10-02T15:40:58.699Z,10.72
2018-10-02T15:43:25.601Z,10.61
2018-10-02T15:45:52.538Z,10.53
2018-10-02T15:48:19.367Z,10.43
2018-10-02T15:50:46.918Z,10.35
2018-10-02T15:53:14.595Z,10.26
2018-10-02T15:55:42.180Z,10.18
2018-10-02T15:58:40.665Z,10.13
2018-10-02T16:01:08.311Z,10.02
2018-10-02T16:03:35.787Z,9.93
2018-10-02T16:06:03.417Z,9.85
2018-10-02T16:08:30.916Z,9.78
2018-10-02T16:10:58.428Z,9.72
2018-10-02T16:13:26.149Z,9.65
2018-10-02T16:15:53.005Z,9.57
2018-10-02T16:18:19.879Z,9.51
2018-10-02T16:20:46.985Z,9.44
2018-10-02T16:23:13.807Z,9.38
2018-10-02T16:25:40.657Z,9.32
2018-10-02T16:28:08.379Z,9.25
2018-10-02T16:30:35.866Z,9.17
2018-10-02T16:33:03.331Z,9.10
2018-10-02T16:35:31.030Z,9.02
2018-10-02T16:37:57.921Z,8.96
2018-10-02T16:40:24.798Z,8.89
2018-10-02T16:42:51.784Z,8.82
2018-10-02T16:45:18.683Z,8.74
2018-10-02T16:47:45.681Z,8.67
2018-10-02T16:50:13.196Z,8.58
2018-10-02T16:52:40.687Z,8.51
2018-10-02T16:55:08.359Z,8.44
2018-10-02T16:57:35.857Z,8.37
2018-10-02T17:00:03.730Z,8.31
2018-10-02T17:02:31.848Z,8.24
2018-10-02T17:04:59.437Z,8.17
2018-10-02T17:07:26.959Z,8.10
2018-10-02T17:09:54.811Z,8.03
2018-10-02T17:12:22.344Z,7.97
2018-10-02T17:14:49.865Z,7.91
2018-10-02T17:17:17.523Z,7.86
2018-10-02T17:19:45.049Z,7.81
2018-10-02T17:22:12.593Z,7.75
2018-10-02T17:24:40.338Z,7.69
2018-10-02T17:27:07.857Z,7.61
2018-10-02T17:29:35.299Z,7.55
2018-10-02T17:32:02.836Z,7.49
2018-10-02T17:34:29.711Z,7.44
2018-10-02T17:36:56.563Z,7.37
2018-10-02T17:39:23.593Z,7.30
2018-10-02T17:41:50.465Z,7.24
2018-10-02T17:44:17.405Z,7.19
2018-10-02T17:46:44.544Z,7.14
2018-10-02T17:49:11.408Z,7.10
2018-10-02T17:51:38.310Z,7.02
2018-10-02T17:54:05.367Z,6.76
2018-10-02T17:56:32.304Z,6.91
2018-10-02T17:58:59.122Z,6.86
2018-10-02T18:01:26.284Z,6.79
2018-10-02T18:03:53.293Z,6.75
2018-10-02T18:06:20.360Z,6.47
2018-10-02T18:08:47.332Z,6.61
2018-10-02T18:11:14.215Z,6.55
2018-10-02T18:13:41.126Z,6.50
2018-10-02T18:16:08.193Z,6.40
2018-10-02T18:18:35.077Z,6.38
2018-10-02T18:21:02.626Z,6.29
2018-10-02T18:23:29.521Z,6.22
2018-10-02T18:25:57.079Z,6.17
2018-10-02T18:28:24.587Z,6.13
2018-10-02T18:30:51.613Z,6.08
2018-10-02T18:33:18.791Z,6.02
2018-10-02T18:35:45.678Z,5.98
2018-10-02T18:38:13.438Z,5.93
2018-10-02T18:40:40.409Z,5.88
2018-10-02T18:43:07.367Z,5.85
2018-10-02T18:45:34.377Z,5.81
2018-10-02T18:48:01.266Z,5.76
2018-10-02T18:50:28.142Z,5.71
2018-10-02T18:52:55.239Z,5.66
2018-10-02T18:55:22.109Z,5.59
2018-10-02T18:57:49.025Z,5.56
2018-10-02T19:00:17.464Z,5.51
2018-10-02T19:02:45.037Z,5.47
2018-10-02T19:05:12.650Z,5.43
2018-10-02T19:07:40.227Z,5.39
2018-10-02T19:10:07.227Z,5.35
2018-10-02T19:12:34.091Z,5.32
2018-10-02T19:15:01.210Z,5.28
2018-10-02T19:17:28.088Z,5.23
2018-10-02T19:20:01.076Z,5.19
2018-10-02T19:22:28.609Z,5.13
2018-10-02T19:25:00.654Z,5.08
2018-10-02T19:27:28.191Z,5.03
2018-10-02T19:30:01.329Z,5.00
2018-10-02T19:32:29.040Z,4.94
2018-10-02T19:34:56.621Z,4.91
2018-10-02T19:37:29.696Z,4.85
2018-10-02T19:39:57.385Z,4.80
2018-10-02T19:42:24.898Z,4.76
2018-10-02T19:44:52.355Z,4.71
2018-10-02T19:47:20.090Z,4.67
2018-10-02T19:49:47.611Z,4.63
2018-10-02T19:52:16.247Z,4.58
2018-10-02T19:54:44.449Z,4.53
2018-10-02T19:57:13.444Z,4.49
2018-10-02T19:59:41.002Z,4.45
2018-10-02T20:02:08.428Z,4.41
2018-10-02T20:04:36.316Z,4.38
2018-10-02T20:07:04.227Z,4.36
2018-10-02T20:09:31.814Z,4.32
2018-10-02T20:11:59.388Z,4.30
2018-10-02T20:14:27.444Z,4.27
2018-10-02T20:16:55.518Z,4.25
2018-10-02T20:19:23.013Z,4.24
2018-10-02T20:21:50.610Z,4.20
2018-10-02T20:24:18.154Z,4.18
2018-10-02T20:26:45.705Z,4.17
2018-10-02T20:29:13.243Z,4.13
2018-10-02T20:31:43.649Z,4.11
2018-10-02T20:34:11.171Z,4.09
2018-10-02T20:36:38.668Z,4.07
2018-10-02T20:39:07.767Z,4.04
2018-10-02T20:41:35.316Z,4.01
2018-10-02T20:44:02.882Z,3.99
2018-10-02T20:46:30.496Z,3.96
2018-10-02T20:48:58.010Z,3.94
2018-10-02T20:51:25.541Z,3.91
2018-10-02T20:53:53.335Z,3.89
2018-10-02T20:56:20.854Z,3.87
2018-10-02T20:58:48.346Z,3.85
2018-10-02T21:01:15.900Z,3.82
2018-10-02T21:03:43.459Z,3.79
2018-10-02T21:06:10.989Z,3.76
2018-10-02T21:08:38.694Z,3.73
2018-10-02T21:11:06.397Z,3.70
2018-10-02T21:13:33.939Z,3.67
2018-10-02T21:16:01.428Z,3.64
2018-10-02T21:18:29.051Z,3.61
2018-10-02T21:20:56.736Z,3.55
2018-10-02T21:23:24.814Z,3.54
2018-10-02T21:25:52.323Z,3.51
2018-10-02T21:28:19.820Z,3.48
2018-10-02T21:30:47.802Z,3.45
2018-10-02T21:33:15.322Z,3.43
2018-10-02T21:35:42.844Z,3.40
2018-10-02T21:38:11.083Z,3.37
2018-10-02T21:40:38.630Z,3.34
2018-10-02T21:43:06.175Z,3.31
2018-10-02T21:45:33.835Z,3.29
2018-10-02T21:48:01.364Z,3.28
2018-10-02T21:50:28.937Z,3.29
2018-10-02T21:52:56.593Z,3.31
2018-10-02T21:55:24.118Z,3.33
2018-10-02T21:57:51.614Z,3.33
2018-10-02T22:00:19.481Z,3.35
2018-10-02T22:02:47.032Z,3.37
2018-10-02T22:05:14.491Z,3.38
2018-10-02T22:07:42.254Z,3.40
2018-10-02T22:10:09.909Z,3.41
2018-10-02T22:12:37.403Z,3.45
2018-10-02T22:15:05.214Z,3.49
2018-10-02T22:17:32.719Z,3.52
2018-10-02T22:20:00.213Z,3.54
2018-10-02T22:22:27.958Z,3.58
2018-10-02T22:24:55.427Z,3.61
2018-10-02T22:27:22.930Z,3.59
2018-10-02T22:29:50.645Z,3.60
2018-10-02T22:32:18.103Z,3.62
2018-10-02T22:34:45.676Z,3.62
2018-10-02T22:37:13.387Z,3.61
2018-10-02T22:39:40.866Z,3.62
2018-10-02T22:42:08.315Z,3.63
2018-10-02T22:44:36.152Z,3.65
2018-10-02T22:47:03.713Z,3.65
2018-10-02T22:49:31.315Z,3.64
2018-10-02T22:51:59.132Z,3.66
2018-10-02T22:54:26.597Z,3.65
2018-10-02T22:56:54.138Z,3.65
2018-10-02T22:59:21.785Z,3.66
2018-10-02T23:01:49.285Z,3.65
2018-10-02T23:04:16.792Z,3.66
2018-10-02T23:06:44.380Z,3.66
2018-10-02T23:09:12.710Z,3.67
2018-10-02T23:11:40.533Z,3.68
2018-10-02T23:14:08.234Z,3.66
2018-10-02T23:16:35.772Z,3.66
2018-10-02T23:19:03.307Z,3.66
2018-10-02T23:21:31.084Z,3.65
2018-10-02T23:23:58.539Z,3.65
2018-10-02T23:26:26.072Z,3.64
2018-10-02T23:28:53.811Z,3.64
2018-10-02T23:31:21.367Z,3.62
2018-10-02T23:33:48.845Z,3.61
2018-10-02T23:36:16.513Z,3.58
2018-10-02T23:38:44.080Z,3.58
2018-10-02T23:41:11.543Z,3.56
2018-10-02T23:43:39.494Z,3.54
2018-10-02T23:46:07.411Z,3.51
2018-10-02T23:48:34.890Z,3.51
2018-10-02T23:51:02.557Z,3.50
2018-10-02T23:53:30.110Z,3.48
2018-10-02T23:55:57.640Z,3.47
2018-10-02T23:58:25.304Z,3.45
